sensor_id;sensor_type;location;lat;lon;timestamp;temperature;humidity
10312;DHT22;5201;48.776;9.128;2023-08-06T00:00:05;17.50;99.90
10312;DHT22;5201;48.776;9.128;2023-08-06T00:02:31;17.50;99.90
10312;DHT22;5201;48.776;9.128;2023-08-06T00:04:56;17.40;99.90
10312;DHT22;5201;48.776;9.128;2023-08-06T00:07:22;17.30;99.90
10312;DHT22;5201;48.776;9.128;2023-08-06T00:09:48;17.30;99.90
10312;DHT22;5201;48.776;9.128;2023-08-06T00:12:13;17.30;99.90
10312;DHT22;5201;48.776;9.128;2023-08-06T00:14:39;17.30;99.90
10312;DHT22;5201;48.776;9.128;2023-08-06T00:17:04;17.30;99.90
10312;DHT22;5201;48.776;9.128;2023-08-06T00:19:31;17.20;99.90
10312;DHT22;5201;48.776;9.128;2023-08-06T00:21:57;17.10;99.90
10312;DHT22;5201;48.776;9.128;2023-08-06T00:24:23;17.10;99.90
10312;DHT22;5201;48.776;9.128;2023-08-06T00:26:48;17.10;99.90
10312;DHT22;5201;48.776;9.128;2023-08-06T00:29:14;17.10;99.90
10312;DHT22;5201;48.776;9.128;2023-08-06T00:31:39;17.00;99.90
10312;DHT22;5201;48.776;9.128;2023-08-06T00:34:05;17.00;99.90
10312;DHT22;5201;48.776;9.128;2023-08-06T00:36:31;16.90;99.90
10312;DHT22;5201;48.776;9.128;2023-08-06T00:38:56;16.80;99.90
10312;DHT22;5201;48.776;9.128;2023-08-06T00:41:22;16.70;99.90
10312;DHT22;5201;48.776;9.128;2023-08-06T00:43:48;16.70;99.90
10312;DHT22;5201;48.776;9.128;2023-08-06T00:46:13;16.90;99.90
10312;DHT22;5201;48.776;9.128;2023-08-06T00:48:40;16.50;99.90
10312;DHT22;5201;48.776;9.128;2023-08-06T00:51:08;16.50;99.90
10312;DHT22;5201;48.776;9.128;2023-08-06T00:53:35;16.40;99.90
10312;DHT22;5201;48.776;9.128;2023-08-06T00:56:01;16.40;99.90
10312;DHT22;5201;48.776;9.128;2023-08-06T00:58:27;16.40;99.90
10312;DHT22;5201;48.776;9.128;2023-08-06T01:00:53;16.40;99.90
10312;DHT22;5201;48.776;9.128;2023-08-06T01:03:18;16.40;99.90
10312;DHT22;5201;48.776;9.128;2023-08-06T01:05:44;16.40;99.90
10312;DHT22;5201;48.776;9.128;2023-08-06T01:08:36;17.40;99.90
10312;DHT22;5201;48.776;9.128;2023-08-06T01:13:59;16.30;99.90
10312;DHT22;5201;48.776;9.128;2023-08-06T01:16:28;16.30;99.90
10312;DHT22;5201;48.776;9.128;2023-08-06T01:18:58;16.30;99.90
10312;DHT22;5201;48.776;9.128;2023-08-06T01:21:23;16.30;99.90
10312;DHT22;5201;48.776;9.128;2023-08-06T01:23:49;16.60;99.90
10312;DHT22;5201;48.776;9.128;2023-08-06T01:26:59;16.20;99.90
10312;DHT22;5201;48.776;9.128;2023-08-06T01:29:19;16.20;99.90
10312;DHT22;5201;48.776;9.128;2023-08-06T01:31:48;16.20;99.90
10312;DHT22;5201;48.776;9.128;2023-08-06T01:34:24;16.50;99.90
10312;DHT22;5201;48.776;9.128;2023-08-06T01:36:51;16.20;99.90
10312;DHT22;5201;48.776;9.128;2023-08-06T01:39:17;16.30;99.90
10312;DHT22;5201;48.776;9.128;2023-08-06T01:41:49;16.30;99.90
10312;DHT22;5201;48.776;9.128;2023-08-06T01:44:15;16.30;99.90
10312;DHT22;5201;48.776;9.128;2023-08-06T01:46:41;16.30;99.90
10312;DHT22;5201;48.776;9.128;2023-08-06T01:49:07;16.30;99.90
10312;DHT22;5201;48.776;9.128;2023-08-06T01:51:33;16.40;99.90
10312;DHT22;5201;48.776;9.128;2023-08-06T01:53:58;16.30;99.90
10312;DHT22;5201;48.776;9.128;2023-08-06T01:56:24;16.10;99.90
10312;DHT22;5201;48.776;9.128;2023-08-06T01:58:50;15.80;99.90
10312;DHT22;5201;48.776;9.128;2023-08-06T02:01:15;16.20;99.90
10312;DHT22;5201;48.776;9.128;2023-08-06T02:03:41;15.60;99.90
10312;DHT22;5201;48.776;9.128;2023-08-06T02:06:07;15.60;99.90
10312;DHT22;5201;48.776;9.128;2023-08-06T02:08:32;15.80;99.90
10312;DHT22;5201;48.776;9.128;2023-08-06T02:10:58;15.80;99.90
10312;DHT22;5201;48.776;9.128;2023-08-06T02:13:24;15.80;99.90
10312;DHT22;5201;48.776;9.128;2023-08-06T02:15:50;15.80;99.90
10312;DHT22;5201;48.776;9.128;2023-08-06T02:18:16;15.80;99.90
10312;DHT22;5201;48.776;9.128;2023-08-06T02:20:42;15.80;99.90
10312;DHT22;5201;48.776;9.128;2023-08-06T02:23:08;15.80;99.90
10312;DHT22;5201;48.776;9.128;2023-08-06T02:25:34;15.70;99.90
10312;DHT22;5201;48.776;9.128;2023-08-06T02:28:00;15.70;99.90
10312;DHT22;5201;48.776;9.128;2023-08-06T02:30:26;15.70;99.90
10312;DHT22;5201;48.776;9.128;2023-08-06T02:32:51;15.60;99.90
10312;DHT22;5201;48.776;9.128;2023-08-06T02:35:17;15.60;99.90
10312;DHT22;5201;48.776;9.128;2023-08-06T02:37:43;15.60;99.90
10312;DHT22;5201;48.776;9.128;2023-08-06T02:40:08;15.70;99.90
10312;DHT22;5201;48.776;9.128;2023-08-06T02:42:34;15.70;99.90
10312;DHT22;5201;48.776;9.128;2023-08-06T02:45:00;15.60;99.90
10312;DHT22;5201;48.776;9.128;2023-08-06T02:47:25;15.50;99.90
10312;DHT22;5201;48.776;9.128;2023-08-06T02:49:51;15.50;99.90
10312;DHT22;5201;48.776;9.128;2023-08-06T02:52:17;15.50;99.90
10312;DHT22;5201;48.776;9.128;2023-08-06T02:54:43;15.50;99.90
10312;DHT22;5201;48.776;9.128;2023-08-06T02:57:08;15.60;99.90
10312;DHT22;5201;48.776;9.128;2023-08-06T02:59:34;15.60;99.90
10312;DHT22;5201;48.776;9.128;2023-08-06T03:01:59;15.60;99.90
10312;DHT22;5201;48.776;9.128;2023-08-06T03:04:25;15.60;99.90
10312;DHT22;5201;48.776;9.128;2023-08-06T03:06:51;15.60;99.90
10312;DHT22;5201;48.776;9.128;2023-08-06T03:09:19;15.60;99.90
10312;DHT22;5201;48.776;9.128;2023-08-06T03:11:45;15.50;99.90
10312;DHT22;5201;48.776;9.128;2023-08-06T03:14:11;15.50;99.90
10312;DHT22;5201;48.776;9.128;2023-08-06T03:16:36;15.50;99.90
10312;DHT22;5201;48.776;9.128;2023-08-06T03:19:02;15.50;99.90
10312;DHT22;5201;48.776;9.128;2023-08-06T03:21:27;15.50;99.90
10312;DHT22;5201;48.776;9.128;2023-08-06T03:23:53;15.50;99.90
10312;DHT22;5201;48.776;9.128;2023-08-06T03:26:19;15.60;99.90
10312;DHT22;5201;48.776;9.128;2023-08-06T03:28:45;15.60;99.90
10312;DHT22;5201;48.776;9.128;2023-08-06T03:31:10;15.60;99.90
10312;DHT22;5201;48.776;9.128;2023-08-06T03:33:36;15.60;99.90
10312;DHT22;5201;48.776;9.128;2023-08-06T03:36:02;15.60;99.90
10312;DHT22;5201;48.776;9.128;2023-08-06T03:38:28;15.60;99.90
10312;DHT22;5201;48.776;9.128;2023-08-06T03:40:54;15.60;99.90
10312;DHT22;5201;48.776;9.128;2023-08-06T03:43:19;15.70;99.90
10312;DHT22;5201;48.776;9.128;2023-08-06T03:45:45;16.00;99.90
10312;DHT22;5201;48.776;9.128;2023-08-06T03:48:10;15.70;99.90
10312;DHT22;5201;48.776;9.128;2023-08-06T03:50:36;15.80;99.90
10312;DHT22;5201;48.776;9.128;2023-08-06T03:53:02;16.10;99.90
10312;DHT22;5201;48.776;9.128;2023-08-06T03:55:27;15.90;99.90
10312;DHT22;5201;48.776;9.128;2023-08-06T03:57:53;15.90;99.90
10312;DHT22;5201;48.776;9.128;2023-08-06T04:00:19;15.80;99.90
10312;DHT22;5201;48.776;9.128;2023-08-06T04:02:44;15.80;99.90
10312;DHT22;5201;48.776;9.128;2023-08-06T04:05:10;15.80;99.90
10312;DHT22;5201;48.776;9.128;2023-08-06T04:07:36;16.50;99.90
10312;DHT22;5201;48.776;9.128;2023-08-06T04:10:03;15.90;99.90
10312;DHT22;5201;48.776;9.128;2023-08-06T04:12:29;15.70;99.90
10312;DHT22;5201;48.776;9.128;2023-08-06T04:14:57;15.80;99.90
10312;DHT22;5201;48.776;9.128;2023-08-06T04:17:23;15.80;99.90
10312;DHT22;5201;48.776;9.128;2023-08-06T04:19:53;15.80;99.90
10312;DHT22;5201;48.776;9.128;2023-08-06T04:22:19;15.80;99.90
10312;DHT22;5201;48.776;9.128;2023-08-06T04:24:46;15.80;99.90
10312;DHT22;5201;48.776;9.128;2023-08-06T04:27:13;16.10;99.90
10312;DHT22;5201;48.776;9.128;2023-08-06T04:29:39;15.80;99.90
10312;DHT22;5201;48.776;9.128;2023-08-06T04:32:06;16.30;99.90
10312;DHT22;5201;48.776;9.128;2023-08-06T04:34:32;15.80;99.90
10312;DHT22;5201;48.776;9.128;2023-08-06T04:36:58;15.90;99.90
10312;DHT22;5201;48.776;9.128;2023-08-06T04:39:24;15.90;99.90
10312;DHT22;5201;48.776;9.128;2023-08-06T04:41:49;16.00;99.90
10312;DHT22;5201;48.776;9.128;2023-08-06T04:44:15;16.00;99.90
10312;DHT22;5201;48.776;9.128;2023-08-06T04:46:41;15.90;99.90
10312;DHT22;5201;48.776;9.128;2023-08-06T04:49:06;15.70;99.90
10312;DHT22;5201;48.776;9.128;2023-08-06T04:51:32;15.70;99.90
10312;DHT22;5201;48.776;9.128;2023-08-06T04:53:59;15.60;99.90
10312;DHT22;5201;48.776;9.128;2023-08-06T04:56:24;15.60;99.90
10312;DHT22;5201;48.776;9.128;2023-08-06T04:58:50;15.70;99.90
10312;DHT22;5201;48.776;9.128;2023-08-06T05:01:18;15.70;99.90
10312;DHT22;5201;48.776;9.128;2023-08-06T05:03:44;15.70;99.90
10312;DHT22;5201;48.776;9.128;2023-08-06T05:06:10;15.80;99.90
10312;DHT22;5201;48.776;9.128;2023-08-06T05:08:36;15.80;99.90
10312;DHT22;5201;48.776;9.128;2023-08-06T05:11:01;15.80;99.90
10312;DHT22;5201;48.776;9.128;2023-08-06T05:13:27;15.80;99.90
10312;DHT22;5201;48.776;9.128;2023-08-06T05:15:54;15.80;99.90
10312;DHT22;5201;48.776;9.128;2023-08-06T05:18:20;15.70;99.90
10312;DHT22;5201;48.776;9.128;2023-08-06T05:20:45;15.60;99.90
10312;DHT22;5201;48.776;9.128;2023-08-06T05:23:11;15.70;99.90
10312;DHT22;5201;48.776;9.128;2023-08-06T05:25:37;15.70;99.90
10312;DHT22;5201;48.776;9.128;2023-08-06T05:28:03;15.80;99.90
10312;DHT22;5201;48.776;9.128;2023-08-06T05:30:29;15.80;99.90
10312;DHT22;5201;48.776;9.128;2023-08-06T05:32:55;15.80;99.90
10312;DHT22;5201;48.776;9.128;2023-08-06T05:35:21;15.90;99.90
10312;DHT22;5201;48.776;9.128;2023-08-06T05:37:47;16.20;99.90
10312;DHT22;5201;48.776;9.128;2023-08-06T05:40:13;16.10;99.90
10312;DHT22;5201;48.776;9.128;2023-08-06T05:42:40;16.10;99.90
10312;DHT22;5201;48.776;9.128;2023-08-06T05:45:06;16.10;99.90
10312;DHT22;5201;48.776;9.128;2023-08-06T05:47:32;16.20;99.90
10312;DHT22;5201;48.776;9.128;2023-08-06T05:49:57;16.20;99.90
10312;DHT22;5201;48.776;9.128;2023-08-06T05:52:23;16.40;99.90
10312;DHT22;5201;48.776;9.128;2023-08-06T05:54:49;16.20;99.90
10312;DHT22;5201;48.776;9.128;2023-08-06T05:57:14;16.30;99.90
10312;DHT22;5201;48.776;9.128;2023-08-06T05:59:40;16.30;99.90
10312;DHT22;5201;48.776;9.128;2023-08-06T06:02:06;16.30;99.90
10312;DHT22;5201;48.776;9.128;2023-08-06T06:04:32;16.70;99.90
10312;DHT22;5201;48.776;9.128;2023-08-06T06:06:57;16.20;99.90
10312;DHT22;5201;48.776;9.128;2023-08-06T06:09:23;16.20;99.90
10312;DHT22;5201;48.776;9.128;2023-08-06T06:11:49;16.10;99.90
10312;DHT22;5201;48.776;9.128;2023-08-06T06:14:16;16.10;99.90
10312;DHT22;5201;48.776;9.128;2023-08-06T06:16:42;16.00;99.90
10312;DHT22;5201;48.776;9.128;2023-08-06T06:19:07;16.30;99.90
10312;DHT22;5201;48.776;9.128;2023-08-06T06:21:33;15.70;99.90
10312;DHT22;5201;48.776;9.128;2023-08-06T06:23:58;15.80;99.90
10312;DHT22;5201;48.776;9.128;2023-08-06T06:26:24;15.90;99.90
10312;DHT22;5201;48.776;9.128;2023-08-06T06:28:49;15.80;99.90
10312;DHT22;5201;48.776;9.128;2023-08-06T06:31:15;15.80;99.90
10312;DHT22;5201;48.776;9.128;2023-08-06T06:33:41;15.80;99.90
10312;DHT22;5201;48.776;9.128;2023-08-06T06:36:06;16.40;99.90
10312;DHT22;5201;48.776;9.128;2023-08-06T06:38:33;15.80;99.90
10312;DHT22;5201;48.776;9.128;2023-08-06T06:40:59;16.40;99.90
10312;DHT22;5201;48.776;9.128;2023-08-06T06:43:25;16.00;99.90
10312;DHT22;5201;48.776;9.128;2023-08-06T06:45:56;15.90;99.90
10312;DHT22;5201;48.776;9.128;2023-08-06T06:48:29;16.00;99.90
10312;DHT22;5201;48.776;9.128;2023-08-06T06:50:55;16.20;99.90
10312;DHT22;5201;48.776;9.128;2023-08-06T06:53:21;16.70;99.90
10312;DHT22;5201;48.776;9.128;2023-08-06T06:56:10;16.20;99.90
10312;DHT22;5201;48.776;9.128;2023-08-06T06:58:36;16.20;99.90
10312;DHT22;5201;48.776;9.128;2023-08-06T07:01:04;16.20;99.90
10312;DHT22;5201;48.776;9.128;2023-08-06T07:03:29;16.60;99.90
10312;DHT22;5201;48.776;9.128;2023-08-06T07:05:59;16.10;99.90
10312;DHT22;5201;48.776;9.128;2023-08-06T07:08:25;16.00;99.90
10312;DHT22;5201;48.776;9.128;2023-08-06T07:10:50;16.00;99.90
10312;DHT22;5201;48.776;9.128;2023-08-06T07:13:24;15.90;99.90
10312;DHT22;5201;48.776;9.128;2023-08-06T07:15:50;15.80;99.90
10312;DHT22;5201;48.776;9.128;2023-08-06T07:18:15;15.70;99.90
10312;DHT22;5201;48.776;9.128;2023-08-06T07:20:41;15.60;99.90
10312;DHT22;5201;48.776;9.128;2023-08-06T07:23:06;15.80;99.90
10312;DHT22;5201;48.776;9.128;2023-08-06T07:25:32;15.90;99.90
10312;DHT22;5201;48.776;9.128;2023-08-06T07:27:58;15.80;99.90
10312;DHT22;5201;48.776;9.128;2023-08-06T07:30:23;15.60;99.90
10312;DHT22;5201;48.776;9.128;2023-08-06T07:32:49;15.50;99.90
10312;DHT22;5201;48.776;9.128;2023-08-06T07:35:15;15.60;99.90
10312;DHT22;5201;48.776;9.128;2023-08-06T07:37:41;15.50;99.90
10312;DHT22;5201;48.776;9.128;2023-08-06T07:40:06;15.60;99.90
10312;DHT22;5201;48.776;9.128;2023-08-06T07:42:32;15.60;99.90
10312;DHT22;5201;48.776;9.128;2023-08-06T07:44:58;15.60;99.90
10312;DHT22;5201;48.776;9.128;2023-08-06T07:47:24;15.60;99.90
10312;DHT22;5201;48.776;9.128;2023-08-06T07:49:50;15.70;99.90
10312;DHT22;5201;48.776;9.128;2023-08-06T07:52:15;15.80;99.90
10312;DHT22;5201;48.776;9.128;2023-08-06T07:54:41;15.60;99.90
10312;DHT22;5201;48.776;9.128;2023-08-06T07:57:07;15.60;99.90
10312;DHT22;5201;48.776;9.128;2023-08-06T07:59:32;15.60;99.90
10312;DHT22;5201;48.776;9.128;2023-08-06T08:01:58;15.60;99.90
10312;DHT22;5201;48.776;9.128;2023-08-06T08:04:24;15.60;99.90
10312;DHT22;5201;48.776;9.128;2023-08-06T08:06:50;16.20;99.90
10312;DHT22;5201;48.776;9.128;2023-08-06T08:09:16;15.60;99.90
10312;DHT22;5201;48.776;9.128;2023-08-06T08:11:41;15.70;99.90
10312;DHT22;5201;48.776;9.128;2023-08-06T08:14:07;15.80;99.90
10312;DHT22;5201;48.776;9.128;2023-08-06T08:16:33;15.70;99.90
10312;DHT22;5201;48.776;9.128;2023-08-06T08:18:59;15.80;99.90
10312;DHT22;5201;48.776;9.128;2023-08-06T08:21:24;15.90;99.90
10312;DHT22;5201;48.776;9.128;2023-08-06T08:23:51;16.20;99.90
10312;DHT22;5201;48.776;9.128;2023-08-06T08:26:17;16.50;99.90
10312;DHT22;5201;48.776;9.128;2023-08-06T08:28:43;16.70;99.90
10312;DHT22;5201;48.776;9.128;2023-08-06T08:31:10;16.90;99.90
10312;DHT22;5201;48.776;9.128;2023-08-06T08:33:39;16.90;99.90
10312;DHT22;5201;48.776;9.128;2023-08-06T08:36:04;17.00;99.90
10312;DHT22;5201;48.776;9.128;2023-08-06T08:38:30;16.80;99.90
10312;DHT22;5201;48.776;9.128;2023-08-06T08:40:56;17.10;99.90
10312;DHT22;5201;48.776;9.128;2023-08-06T08:43:22;16.50;99.90
10312;DHT22;5201;48.776;9.128;2023-08-06T08:45:50;16.60;99.90
10312;DHT22;5201;48.776;9.128;2023-08-06T08:48:17;16.60;99.90
10312;DHT22;5201;48.776;9.128;2023-08-06T08:50:45;16.70;99.90
10312;DHT22;5201;48.776;9.128;2023-08-06T08:53:11;16.80;99.90
10312;DHT22;5201;48.776;9.128;2023-08-06T08:55:38;16.60;99.90
10312;DHT22;5201;48.776;9.128;2023-08-06T08:58:04;16.50;99.90
10312;DHT22;5201;48.776;9.128;2023-08-06T09:00:30;16.40;99.90
10312;DHT22;5201;48.776;9.128;2023-08-06T09:02:59;16.50;99.90
10312;DHT22;5201;48.776;9.128;2023-08-06T09:05:28;16.70;99.90
10312;DHT22;5201;48.776;9.128;2023-08-06T09:07:54;16.50;99.90
10312;DHT22;5201;48.776;9.128;2023-08-06T09:10:20;16.60;99.90
10312;DHT22;5201;48.776;9.128;2023-08-06T09:12:51;16.40;99.90
10312;DHT22;5201;48.776;9.128;2023-08-06T09:15:16;16.40;99.90
10312;DHT22;5201;48.776;9.128;2023-08-06T09:17:42;16.50;99.90
10312;DHT22;5201;48.776;9.128;2023-08-06T09:20:12;16.60;99.90
10312;DHT22;5201;48.776;9.128;2023-08-06T09:22:38;16.60;99.90
10312;DHT22;5201;48.776;9.128;2023-08-06T09:25:05;16.70;99.90
10312;DHT22;5201;48.776;9.128;2023-08-06T09:27:35;16.90;99.90
10312;DHT22;5201;48.776;9.128;2023-08-06T09:30:01;17.10;99.90
10312;DHT22;5201;48.776;9.128;2023-08-06T09:32:26;16.90;99.90
10312;DHT22;5201;48.776;9.128;2023-08-06T09:34:56;17.10;99.90
10312;DHT22;5201;48.776;9.128;2023-08-06T09:37:22;17.10;99.90
10312;DHT22;5201;48.776;9.128;2023-08-06T09:39:47;17.10;99.90
10312;DHT22;5201;48.776;9.128;2023-08-06T09:42:15;17.10;99.90
10312;DHT22;5201;48.776;9.128;2023-08-06T09:44:41;17.10;99.90
10312;DHT22;5201;48.776;9.128;2023-08-06T09:47:07;17.00;99.90
10312;DHT22;5201;48.776;9.128;2023-08-06T09:51:59;17.20;99.90
10312;DHT22;5201;48.776;9.128;2023-08-06T09:54:26;17.00;99.90
10312;DHT22;5201;48.776;9.128;2023-08-06T09:56:53;17.10;99.90
10312;DHT22;5201;48.776;9.128;2023-08-06T09:59:19;17.20;99.90
10312;DHT22;5201;48.776;9.128;2023-08-06T10:01:46;17.20;99.90
10312;DHT22;5201;48.776;9.128;2023-08-06T10:04:13;17.20;99.90
10312;DHT22;5201;48.776;9.128;2023-08-06T10:06:42;17.20;99.90
10312;DHT22;5201;48.776;9.128;2023-08-06T10:09:08;17.00;99.90
10312;DHT22;5201;48.776;9.128;2023-08-06T10:11:36;17.00;99.90
10312;DHT22;5201;48.776;9.128;2023-08-06T10:14:20;17.40;99.90
10312;DHT22;5201;48.776;9.128;2023-08-06T10:16:47;16.90;99.90
10312;DHT22;5201;48.776;9.128;2023-08-06T10:19:14;17.10;99.90
10312;DHT22;5201;48.776;9.128;2023-08-06T10:21:41;17.50;99.90
10312;DHT22;5201;48.776;9.128;2023-08-06T10:24:09;17.20;99.90
10312;DHT22;5201;48.776;9.128;2023-08-06T10:26:40;17.10;99.90
10312;DHT22;5201;48.776;9.128;2023-08-06T10:29:36;17.00;99.90
10312;DHT22;5201;48.776;9.128;2023-08-06T10:32:03;17.00;99.90
10312;DHT22;5201;48.776;9.128;2023-08-06T10:34:58;17.10;99.90
10312;DHT22;5201;48.776;9.128;2023-08-06T10:37:35;17.00;99.90
10312;DHT22;5201;48.776;9.128;2023-08-06T10:40:02;16.90;99.90
10312;DHT22;5201;48.776;9.128;2023-08-06T10:42:29;16.70;99.90
10312;DHT22;5201;48.776;9.128;2023-08-06T10:45:17;17.00;99.90
10312;DHT22;5201;48.776;9.128;2023-08-06T10:47:44;16.80;99.90
10312;DHT22;5201;48.776;9.128;2023-08-06T10:50:16;17.00;99.90
10312;DHT22;5201;48.776;9.128;2023-08-06T10:52:47;17.10;99.90
10312;DHT22;5201;48.776;9.128;2023-08-06T10:55:13;17.10;99.90
10312;DHT22;5201;48.776;9.128;2023-08-06T10:57:39;17.10;99.90
10312;DHT22;5201;48.776;9.128;2023-08-06T11:00:06;17.10;99.90
10312;DHT22;5201;48.776;9.128;2023-08-06T11:02:34;17.10;99.90
10312;DHT22;5201;48.776;9.128;2023-08-06T11:05:08;17.60;99.90
10312;DHT22;5201;48.776;9.128;2023-08-06T11:07:35;17.00;99.90
10312;DHT22;5201;48.776;9.128;2023-08-06T11:10:06;16.90;99.90
10312;DHT22;5201;48.776;9.128;2023-08-06T11:12:32;16.90;99.90
10312;DHT22;5201;48.776;9.128;2023-08-06T11:14:58;16.70;99.90
10312;DHT22;5201;48.776;9.128;2023-08-06T11:17:24;16.60;99.90
10312;DHT22;5201;48.776;9.128;2023-08-06T11:19:51;16.60;99.90
10312;DHT22;5201;48.776;9.128;2023-08-06T11:22:17;16.60;99.90
10312;DHT22;5201;48.776;9.128;2023-08-06T11:24:43;16.40;99.90
10312;DHT22;5201;48.776;9.128;2023-08-06T11:27:16;16.30;99.90
10312;DHT22;5201;48.776;9.128;2023-08-06T11:29:43;16.30;99.90
10312;DHT22;5201;48.776;9.128;2023-08-06T11:32:09;16.30;99.90
10312;DHT22;5201;48.776;9.128;2023-08-06T11:34:36;16.30;99.90
10312;DHT22;5201;48.776;9.128;2023-08-06T11:37:05;16.30;99.90
10312;DHT22;5201;48.776;9.128;2023-08-06T11:39:33;16.80;99.90
10312;DHT22;5201;48.776;9.128;2023-08-06T11:41:58;16.40;99.90
10312;DHT22;5201;48.776;9.128;2023-08-06T11:44:30;16.40;99.90
10312;DHT22;5201;48.776;9.128;2023-08-06T11:46:58;16.30;99.90
10312;DHT22;5201;48.776;9.128;2023-08-06T11:52:23;16.30;99.90
10312;DHT22;5201;48.776;9.128;2023-08-06T11:55:02;16.40;99.90
10312;DHT22;5201;48.776;9.128;2023-08-06T11:57:32;16.10;99.90
10312;DHT22;5201;48.776;9.128;2023-08-06T12:00:11;16.00;99.90
10312;DHT22;5201;48.776;9.128;2023-08-06T12:02:40;16.00;99.90
10312;DHT22;5201;48.776;9.128;2023-08-06T12:07:43;15.70;99.90
10312;DHT22;5201;48.776;9.128;2023-08-06T12:10:09;15.80;99.90
10312;DHT22;5201;48.776;9.128;2023-08-06T12:12:35;15.90;99.90
10312;DHT22;5201;48.776;9.128;2023-08-06T12:15:01;15.60;99.90
10312;DHT22;5201;48.776;9.128;2023-08-06T12:17:27;15.60;99.90
10312;DHT22;5201;48.776;9.128;2023-08-06T12:19:53;15.50;99.90
10312;DHT22;5201;48.776;9.128;2023-08-06T12:22:18;15.40;99.90
10312;DHT22;5201;48.776;9.128;2023-08-06T12:24:45;15.40;99.90
10312;DHT22;5201;48.776;9.128;2023-08-06T12:27:11;15.60;99.90
10312;DHT22;5201;48.776;9.128;2023-08-06T12:29:47;15.40;99.90
10312;DHT22;5201;48.776;9.128;2023-08-06T12:32:13;15.40;99.90
10312;DHT22;5201;48.776;9.128;2023-08-06T12:34:40;15.50;99.90
10312;DHT22;5201;48.776;9.128;2023-08-06T12:37:06;15.80;99.90
10312;DHT22;5201;48.776;9.128;2023-08-06T12:39:37;16.00;99.90
10312;DHT22;5201;48.776;9.128;2023-08-06T12:42:04;16.20;99.90
10312;DHT22;5201;48.776;9.128;2023-08-06T12:44:30;16.20;99.90
10312;DHT22;5201;48.776;9.128;2023-08-06T12:46:56;16.40;99.90
10312;DHT22;5201;48.776;9.128;2023-08-06T12:49:22;16.50;99.90
10312;DHT22;5201;48.776;9.128;2023-08-06T12:51:48;16.50;99.90
10312;DHT22;5201;48.776;9.128;2023-08-06T12:54:18;16.60;99.90
10312;DHT22;5201;48.776;9.128;2023-08-06T12:56:44;16.80;99.90
10312;DHT22;5201;48.776;9.128;2023-08-06T12:59:10;16.80;99.90
10312;DHT22;5201;48.776;9.128;2023-08-06T13:01:38;16.80;99.90
10312;DHT22;5201;48.776;9.128;2023-08-06T13:04:04;16.80;99.90
10312;DHT22;5201;48.776;9.128;2023-08-06T13:06:29;16.60;99.90
10312;DHT22;5201;48.776;9.128;2023-08-06T13:08:58;16.60;99.90
10312;DHT22;5201;48.776;9.128;2023-08-06T13:11:24;16.80;99.90
10312;DHT22;5201;48.776;9.128;2023-08-06T13:13:50;16.80;99.90
10312;DHT22;5201;48.776;9.128;2023-08-06T13:16:15;16.70;99.90
10312;DHT22;5201;48.776;9.128;2023-08-06T13:18:41;16.80;99.90
10312;DHT22;5201;48.776;9.128;2023-08-06T13:21:06;17.00;99.90
10312;DHT22;5201;48.776;9.128;2023-08-06T13:23:32;17.50;99.90
10312;DHT22;5201;48.776;9.128;2023-08-06T13:25:57;17.10;99.90
10312;DHT22;5201;48.776;9.128;2023-08-06T13:28:24;17.20;99.90
10312;DHT22;5201;48.776;9.128;2023-08-06T13:30:49;17.40;99.90
10312;DHT22;5201;48.776;9.128;2023-08-06T13:33:15;17.10;99.90
10312;DHT22;5201;48.776;9.128;2023-08-06T13:35:40;17.00;99.90
10312;DHT22;5201;48.776;9.128;2023-08-06T13:38:06;17.40;99.90
10312;DHT22;5201;48.776;9.128;2023-08-06T13:40:33;16.90;99.90
10312;DHT22;5201;48.776;9.128;2023-08-06T13:42:59;17.10;99.90
10312;DHT22;5201;48.776;9.128;2023-08-06T13:45:25;17.10;99.90
10312;DHT22;5201;48.776;9.128;2023-08-06T13:47:51;17.20;99.90
10312;DHT22;5201;48.776;9.128;2023-08-06T13:50:17;17.20;99.90
10312;DHT22;5201;48.776;9.128;2023-08-06T13:52:42;17.00;99.90
10312;DHT22;5201;48.776;9.128;2023-08-06T13:55:08;16.90;99.90
10312;DHT22;5201;48.776;9.128;2023-08-06T13:57:35;17.00;99.90
10312;DHT22;5201;48.776;9.128;2023-08-06T14:00:01;17.10;99.90
10312;DHT22;5201;48.776;9.128;2023-08-06T14:02:26;17.20;99.90
10312;DHT22;5201;48.776;9.128;2023-08-06T14:04:53;17.30;99.90
10312;DHT22;5201;48.776;9.128;2023-08-06T14:07:19;17.40;99.90
10312;DHT22;5201;48.776;9.128;2023-08-06T14:09:44;17.40;99.90
10312;DHT22;5201;48.776;9.128;2023-08-06T14:12:10;17.30;99.90
10312;DHT22;5201;48.776;9.128;2023-08-06T14:14:36;17.20;99.90
10312;DHT22;5201;48.776;9.128;2023-08-06T14:17:01;17.20;99.90
10312;DHT22;5201;48.776;9.128;2023-08-06T14:19:27;17.20;99.90
10312;DHT22;5201;48.776;9.128;2023-08-06T14:21:54;17.30;99.90
10312;DHT22;5201;48.776;9.128;2023-08-06T14:24:20;17.40;99.90
10312;DHT22;5201;48.776;9.128;2023-08-06T14:26:46;17.40;99.90
10312;DHT22;5201;48.776;9.128;2023-08-06T14:29:11;17.60;99.90
10312;DHT22;5201;48.776;9.128;2023-08-06T14:31:39;17.60;99.90
10312;DHT22;5201;48.776;9.128;2023-08-06T14:34:05;17.60;99.90
10312;DHT22;5201;48.776;9.128;2023-08-06T14:36:30;17.50;99.90
10312;DHT22;5201;48.776;9.128;2023-08-06T14:38:56;17.50;99.90
10312;DHT22;5201;48.776;9.128;2023-08-06T14:41:21;17.50;99.90
10312;DHT22;5201;48.776;9.128;2023-08-06T14:43:47;17.40;99.90
10312;DHT22;5201;48.776;9.128;2023-08-06T14:46:13;17.40;99.90
10312;DHT22;5201;48.776;9.128;2023-08-06T14:48:38;17.10;99.90
10312;DHT22;5201;48.776;9.128;2023-08-06T14:51:04;17.30;99.90
10312;DHT22;5201;48.776;9.128;2023-08-06T14:53:30;16.70;99.90
10312;DHT22;5201;48.776;9.128;2023-08-06T14:55:55;16.70;99.90
10312;DHT22;5201;48.776;9.128;2023-08-06T14:58:21;16.90;99.90
10312;DHT22;5201;48.776;9.128;2023-08-06T15:00:47;16.70;99.90
10312;DHT22;5201;48.776;9.128;2023-08-06T15:03:12;16.60;99.90
10312;DHT22;5201;48.776;9.128;2023-08-06T15:05:38;16.40;99.90
10312;DHT22;5201;48.776;9.128;2023-08-06T15:08:03;16.30;99.90
10312;DHT22;5201;48.776;9.128;2023-08-06T15:10:29;16.20;99.90
10312;DHT22;5201;48.776;9.128;2023-08-06T15:12:55;16.20;99.90
10312;DHT22;5201;48.776;9.128;2023-08-06T15:15:20;16.20;99.90
10312;DHT22;5201;48.776;9.128;2023-08-06T15:17:47;16.50;99.90
10312;DHT22;5201;48.776;9.128;2023-08-06T15:20:13;17.00;99.90
10312;DHT22;5201;48.776;9.128;2023-08-06T15:22:39;16.60;99.90
10312;DHT22;5201;48.776;9.128;2023-08-06T15:25:05;16.70;99.90
10312;DHT22;5201;48.776;9.128;2023-08-06T15:27:30;16.80;99.90
10312;DHT22;5201;48.776;9.128;2023-08-06T15:29:57;17.00;99.90
10312;DHT22;5201;48.776;9.128;2023-08-06T15:32:23;17.00;99.90
10312;DHT22;5201;48.776;9.128;2023-08-06T15:34:50;17.00;99.90
10312;DHT22;5201;48.776;9.128;2023-08-06T15:37:15;17.00;99.90
10312;DHT22;5201;48.776;9.128;2023-08-06T15:39:41;17.00;99.90
10312;DHT22;5201;48.776;9.128;2023-08-06T15:42:07;17.10;99.90
10312;DHT22;5201;48.776;9.128;2023-08-06T15:44:32;17.10;99.90
10312;DHT22;5201;48.776;9.128;2023-08-06T15:46:58;17.20;99.90
10312;DHT22;5201;48.776;9.128;2023-08-06T15:49:23;17.20;99.90
10312;DHT22;5201;48.776;9.128;2023-08-06T15:51:49;17.10;99.90